Angelo Coast Range Reserve, California Weather observations

Data are for 10 minute period ending at time listed.
 Day   Time   Solar   Ave.   Ave.  Ave.  Vector  Max.   Baro.   Total    
  of    of     Rad.   Air    Rel.  Wind   Wind   Wind  Press.  Precip.   
Year   Day            Temp.  Hum.  Speed  Dir.   Gust                    
2017   (PST)  Kw/m2    F      %     mph   deg.    mph    mb.     in.     
-------------------------------------------------------------------------
 205   18:10   0.04   73.2    51    6.7   166     9.6   960.4    0.00 
 205   18:20   0.03   72.5    52    5.8   171     9.0   960.4    0.00 
 205   18:30   0.03   72.0    53    4.1   173     6.5   960.5    0.00 
 205   18:40   0.03   71.3    54    4.5   164     7.0   960.4    0.00 
 205   18:50   0.02   70.7    54    4.8   168     7.5   960.5    0.00 
 205   19:00   0.01   70.0    55    5.5   161     8.0   960.6    0.00 
 205   19:10   0.01   69.3    56    3.6   156     8.0   960.6    0.00 
 205   19:20   0.01   68.9    56    3.0   156     4.9   960.7    0.00 
 205   19:30   0.01   68.4    57    2.1   162     4.2   960.8    0.00 
 205   19:40   0.00   67.7    59    1.3   178     2.2   960.8    0.00 
 205   19:50   0.00   67.0    60    2.0   166     2.9   960.8    0.00 
 205   20:00   0.00   66.6    61    0.9   155     2.6   960.8    0.00 
 205   20:10   0.00   66.1    62    0.0   262     0.4   960.9    0.00 
 205   20:20   0.00   65.4    64    0.2   236     0.7   961.0    0.00 
 205   20:30   0.00   64.8    65    1.5   182     2.3   961.1    0.00 
 205   20:40   0.00   64.3    66    1.9   174     3.0   961.2    0.00 
 205   20:50   0.00   64.3    66    3.4   164     5.6   961.3    0.00 
 205   21:00   0.00   64.2    67    4.1   157     6.2   961.4    0.00 
 205   21:10   0.00   63.9    68    3.8   160     5.8   961.5    0.00 
 205   21:20   0.00   63.4    69    3.5   161     6.1   961.5    0.00 
 205   21:30   0.00   63.0    70    3.0   152     4.2   961.5    0.00 
 205   21:40   0.00   62.6    71    3.0   153     5.0   961.5    0.00 
 205   21:50   0.00   62.2    72    1.5   142     3.3   961.5    0.00 
 205   22:00   0.00   61.8    72    0.8   165     2.0   961.6    0.00 
 205   22:10   0.00   61.4    73    1.2   193     2.9   961.6    0.00 
 205   22:20   0.00   60.7    75    2.3   172     3.4   961.7    0.00 
 205   22:30   0.00   60.5    75    1.9   152     3.1   961.7    0.00 
 205   22:40   0.00   60.3    76    1.8   176     3.2   961.8    0.00 
 205   22:50   0.00   59.9    77    0.9   186     2.4   961.9    0.00 
 205   23:00   0.00   59.5    78    0.4   214     2.3   961.9    0.00 
 205   23:10   0.00   59.1    79    0.7   197     1.5   961.9    0.00 
 205   23:20   0.00   58.7    80    0.5   197     1.8   961.9    0.00 
 205   23:30   0.00   58.4    81    0.4   176     1.1   961.9    0.00 
 205   23:40   0.00   58.1    81    0.3   176     1.5   961.9    0.00 
 205   23:50   0.00   57.7    82    0.1   176     0.6   961.9    0.00 
 206    0:00   0.00   57.4    83    0.0     0     0.0   961.8    0.00 
 206    0:10   0.00   57.1    84    1.1   177     2.0   961.8    0.00 
 206    0:20   0.00   56.9    84    1.1   179     2.0   961.8    0.00 
 206    0:30   0.00   56.6    85    1.3   188     3.4   961.9    0.00 
 206    0:40   0.00   56.5    84    1.2   160     4.8   962.0    0.00 
 206    0:50   0.00   56.8    84    2.3   161     4.7   962.0    0.00 
 206    1:00   0.00   56.7    84    1.4   188     3.1   962.0    0.00 
 206    1:10   0.00   56.2    86    1.8   183     3.4   961.8    0.00 
 206    1:20   0.00   56.0    86    0.7   184     2.6   961.8    0.00 
 206    1:30   0.00   55.8    86    0.7   169     2.8   961.9    0.00 
 206    1:40   0.00   55.6    87    1.3   163     3.0   961.9    0.00 
 206    1:50   0.00   55.4    87    1.2   169     2.3   962.0    0.00 
 206    2:00   0.00   55.1    88    1.6   185     2.8   962.0    0.00 
 206    2:10   0.00   55.0    88    1.8   190     3.4   962.2    0.00 
 206    2:20   0.00   54.8    88    0.8   185     2.0   962.1    0.00 
 206    2:30   0.00   54.6    89    0.4   196     1.7   962.1    0.00 
 206    2:40   0.00   54.2    89    0.1   242     0.9   962.1    0.00 
 206    2:50   0.00   53.9    90    0.0     0     0.0   962.1    0.00 
 206    3:00   0.00   53.7    91    0.0     0     0.0   962.1    0.00 
 206    3:10   0.00   53.5    91    0.0     0     0.0   962.2    0.00 
 206    3:20   0.00   53.3    92    0.4   163     1.5   962.2    0.00 
 206    3:30   0.00   53.0    92    0.1   170     0.7   962.2    0.00 
 206    3:40   0.00   52.8    93    0.1   170     0.8   962.2    0.00 
 206    3:50   0.00   52.7    93    0.0   170     0.6   962.3    0.00 
 206    4:00   0.00   52.5    93    0.1   170     1.0   962.3    0.00 
 206    4:10   0.00   52.3    94    0.0     0     0.0   962.4    0.00 
 206    4:20   0.00   52.0    94    0.0     0     0.0   962.4    0.00 
 206    4:30   0.00   51.8    95    0.3   170     1.5   962.6    0.00 
 206    4:40   0.00   51.8    95    0.7   167     1.5   962.7    0.00 
 206    4:50   0.00   51.6    94    1.2   172     1.8   962.8    0.00 
 206    5:00   0.00   51.5    94    0.5   180     1.5   962.9    0.00 
 206    5:10   0.00   51.3    94    0.0     0     0.0   963.0    0.00 
 206    5:20   0.00   51.3    95    0.1   192     1.2   963.1    0.00 
 206    5:30   0.01   51.4    95    0.0   192     0.6   963.0    0.00 
 206    5:40   0.01   51.2    95    0.0   204     0.5   963.1    0.00 
 206    5:50   0.01   51.0    95    0.0     4     0.6   963.2    0.00 
 206    6:00   0.01   51.0    95    0.3    28     1.3   963.3    0.00 
 206    6:10   0.01   51.1    95    0.7   143     1.5   963.4    0.00 
 206    6:20   0.01   51.3    95    0.6   154     1.7   963.4    0.00 
 206    6:30   0.01   51.4    94    0.2   174     2.1   963.4    0.00 
 206    6:40   0.01   51.4    94    1.4   170     2.3   963.5    0.00 
 206    6:50   0.01   51.6    94    0.7   164     1.4   963.6    0.00 
 206    7:00   0.02   51.6    93    0.6   164     1.7   963.7    0.00 
 206    7:10   0.03   51.9    93    1.5   161     2.5   963.7    0.00 
 206    7:20   0.03   52.4    92    0.1   134     0.9   963.8    0.00 
 206    7:30   0.03   53.5    91    0.5   120     1.8   963.8    0.00 
 206    7:40   0.03   54.6    90    0.4    99     0.9   963.9    0.00 
 206    7:50   0.04   55.8    89    0.8    98     1.8   963.8    0.00 
 206    8:00   0.04   58.1    84    1.6    92     2.0   963.4    0.00 
 206    8:10   0.29   60.2    79    1.4    98     2.3   963.3    0.00 
 206    8:20   0.50   63.7    71    1.6    86     2.2   963.4    0.00 
 206    8:30   0.54   67.4    65    1.3    92     1.8   963.5    0.00 
 206    8:40   0.56   70.6    60    1.3    90     2.0   963.6    0.00 
 206    8:50   0.59   71.1    59    1.4    95     2.0   963.8    0.00 
 206    9:00   0.62   70.5    60    1.6   104     2.4   964.0    0.00 
 206    9:10   0.64   71.1    59    1.5   102     2.6   964.1    0.00 
 206    9:20   0.66   72.1    56    1.4   105     2.6   964.1    0.00 
 206    9:30   0.67   73.1    56    0.7   114     1.9   964.1    0.00 
 206    9:40   0.69   74.2    55    0.7   125     1.2   964.1    0.00 
 206    9:50   0.70   75.3    54    1.7   153     2.6   964.0    0.00 
 206   10:00   0.73   76.8    52    0.9   144     2.1   964.0    0.00 
 206   10:10   0.76   79.6    46    0.7    89     2.6   964.0    0.00 
 206   10:20   0.78   81.1    42    1.3    88     3.1   963.9    0.00 
 206   10:30   0.80   83.1    39    3.5   140     7.1   963.8    0.00 
 206   10:40   0.81   84.3    37    4.7   145     8.6   963.8    0.00 
 206   10:50   0.82   84.4    38    5.5   136     9.9   963.8    0.00 
 206   11:00   0.83   84.6    39    6.0   148    12.3   963.8    0.00 
 206   11:10   0.84   84.3    40    6.4   144    13.5   963.8    0.00 
 206   11:20   0.85   84.6    40    5.7   131    13.8   963.8    0.00 
 206   11:30   0.87   84.5    41    5.3   132    10.5   963.8    0.00 
 206   11:40   0.87   84.1    41    6.8   147    14.9   963.9    0.00 
 206   11:50   0.88   83.2    42    6.6   146    13.4   964.0    0.00 
 206   12:00   0.88   83.7    40    4.9   138    11.1   964.0    0.00 
 206   12:10   0.88   85.0    38    4.7   139    11.2   964.0    0.00 
 206   12:20   0.88   84.9    38    5.6   151    12.1   963.9    0.00 
 206   12:30   0.88   84.3    39    5.7   146    13.2   963.9    0.00 
 206   12:40   0.87   83.7    39    6.3   144    12.6   963.9    0.00 
 206   12:50   0.87   83.2    40    6.5   138    12.4   963.9    0.00 
 206   13:00   0.86   83.5    40    5.1   134    12.1   963.9    0.00 
 206   13:10   0.85   83.8    40    6.3   146    14.0   963.8    0.00 
 206   13:20   0.84   82.6    41    5.9   122    11.5   963.9    0.00 
 206   13:30   0.83   81.9    42    6.7   132    12.3   964.0    0.00 
 206   13:40   0.78   81.3    42    7.1   136    14.5   964.0    0.00 
 206   13:50   0.80   81.3    42    6.8   151    12.8   964.0    0.00 
 206   14:00   0.79   80.6    42    8.4   157    15.3   964.0    0.00 
 206   14:10   0.78   80.8    41    7.0   153    14.5   964.1    0.00 
 206   14:20   0.76   79.6    44    8.1   148    16.1   964.1    0.00 
 206   14:30   0.74   78.6    46    7.7   145    16.4   964.2    0.00 
 206   14:40   0.73   78.5    46    6.5   146    11.3   964.2    0.00 
 206   14:50   0.70   79.6    45    5.9   164    10.7   964.3    0.00 
 206   15:00   0.68   79.1    45    6.4   160    12.9   964.4    0.00 
 206   15:10   0.66   79.2    45    6.6   170    11.2   964.4    0.00 
 206   15:20   0.64   80.6    42    4.0   175    10.3   964.5    0.00 
 206   15:30   0.62   82.1    37    3.2    13     9.1   964.5    0.00 
 206   15:40   0.59   81.6    37    3.8    12    10.2   964.5    0.00 
 206   15:50   0.56   81.7    36    3.4    18     7.7   964.5    0.00 
 206   16:00   0.54   81.2    36    3.1    23    11.0   964.6    0.00 
 206   16:10   0.51   81.3    36    2.5    35     5.6   964.6    0.00 
 206   16:20   0.33   81.0    35    1.6   337     6.9   964.5    0.00 
 206   16:30   0.27   81.1    36    1.5    49     4.7   964.4    0.00 
 206   16:40   0.43   80.5    38    0.8   207     2.9   964.4    0.00 
 206   16:50   0.37   80.8    37    1.3   252     3.7   964.4    0.00 
 206   17:00   0.37   81.4    36    1.4   189     3.7   964.4    0.00 
 206   17:10   0.37   81.1    37    0.9   218     2.6   964.5    0.00 
 206   17:20   0.13   80.4    38    0.9   213     2.5   964.5    0.00 
 206   17:30   0.13   78.6    38    0.7   129     3.0   964.5    0.00 
 206   17:40   0.05   77.4    41    1.3   238     3.7   964.5    0.00 
 206   17:50   0.05   76.6    42    3.7   171     9.3   964.6    0.00 
 206   18:00   0.05   75.1    46    5.1   171     8.3   964.8    0.00 

Return to Angelo Coast Range Reserve graphs page.


Western Regional Climate Center,wrcc@dri.edu